createdAt,value
2023-10-23T07:48:20.105Z,74.53
2023-10-23T07:50:46.885Z,72.80
2023-10-23T07:53:13.559Z,71.52
2023-10-23T07:55:40.231Z,69.55
2023-10-23T07:58:06.959Z,66.52
2023-10-23T08:00:33.891Z,66.43
2023-10-23T08:03:00.751Z,65.09
2023-10-23T08:05:27.521Z,66.34
2023-10-23T08:07:54.270Z,65.24
2023-10-23T08:10:20.994Z,63.95
2023-10-23T08:12:47.778Z,63.93
2023-10-23T08:15:14.575Z,67.97
2023-10-23T08:17:42.956Z,67.08
2023-10-23T08:20:09.939Z,65.14
2023-10-23T08:22:36.649Z,65.60
2023-10-23T08:25:03.515Z,66.57
2023-10-23T08:27:30.265Z,63.72
2023-10-23T08:29:56.936Z,63.64
2023-10-23T08:32:28.778Z,64.12
2023-10-23T08:35:04.284Z,62.98
2023-10-23T08:37:31.050Z,62.28
2023-10-23T08:39:57.642Z,63.45
2023-10-23T08:42:27.422Z,63.46
2023-10-23T08:44:53.965Z,62.95
2023-10-23T08:47:20.590Z,63.52
2023-10-23T08:49:47.100Z,64.22
2023-10-23T08:52:13.912Z,63.84
2023-10-23T08:54:40.453Z,64.41
2023-10-23T08:57:07.016Z,65.01
2023-10-23T08:59:33.585Z,66.11
2023-10-23T09:02:01.438Z,66.15
2023-10-23T09:04:28.882Z,65.34
2023-10-23T09:06:55.443Z,66.66
2023-10-23T09:09:22.015Z,68.82
2023-10-23T09:11:48.736Z,67.33
2023-10-23T09:15:05.585Z,68.87
2023-10-23T09:17:32.348Z,69.43
2023-10-23T09:19:59.316Z,67.94
2023-10-23T09:22:26.546Z,67.89
2023-10-23T09:24:53.274Z,70.42
2023-10-23T09:27:20.451Z,70.15
2023-10-23T09:29:47.150Z,70.32
2023-10-23T09:32:13.860Z,69.23
2023-10-23T09:34:40.693Z,69.12
2023-10-23T09:37:07.432Z,69.38
2023-10-23T09:39:34.177Z,68.75
2023-10-23T09:42:00.909Z,68.56
2023-10-23T09:44:27.629Z,66.05
2023-10-23T09:46:54.490Z,64.48
2023-10-23T09:49:21.509Z,62.95
2023-10-23T09:51:48.445Z,62.03
2023-10-23T09:54:15.172Z,63.20
2023-10-23T09:56:41.917Z,63.69
2023-10-23T09:59:08.609Z,65.10
2023-10-23T10:01:35.465Z,67.15
2023-10-23T10:04:02.570Z,68.82
2023-10-23T10:06:29.436Z,68.22
2023-10-23T10:08:56.256Z,65.89
2023-10-23T10:11:22.999Z,67.64
2023-10-23T10:13:49.697Z,66.39
2023-10-23T10:16:16.628Z,66.14
2023-10-23T10:18:43.555Z,66.67
2023-10-23T10:21:10.361Z,67.98
2023-10-23T10:23:37.079Z,67.58
2023-10-23T10:26:04.141Z,65.74
2023-10-23T10:28:30.868Z,65.99
2023-10-23T10:30:57.597Z,64.08
2023-10-23T10:34:24.392Z,65.59
2023-10-23T10:36:11.110Z,66.59
2023-10-23T10:38:37.841Z,65.18
2023-10-23T10:41:04.555Z,65.24
2023-10-23T10:43:31.433Z,65.27
2023-10-23T10:45:58.101Z,65.14
2023-10-23T10:48:24.802Z,64.49
2023-10-23T10:50:51.599Z,63.07
2023-10-23T10:53:18.315Z,61.97
2023-10-23T10:55:45.020Z,62.02
2023-10-23T10:58:11.751Z,59.26
2023-10-23T11:00:38.514Z,64.21
2023-10-23T11:03:05.343Z,58.72
2023-10-23T11:05:32.068Z,59.43
2023-10-23T11:07:58.795Z,60.54
2023-10-23T11:10:25.586Z,59.85
2023-10-23T11:12:52.302Z,59.28
2023-10-23T11:15:19.195Z,59.33
2023-10-23T11:17:46.022Z,57.91
2023-10-23T11:20:12.766Z,57.60
2023-10-23T11:22:39.428Z,56.87
2023-10-23T11:25:06.155Z,60.33
2023-10-23T11:27:32.821Z,56.47
2023-10-23T11:29:59.500Z,55.72
2023-10-23T11:32:26.170Z,57.23
2023-10-23T11:34:52.874Z,57.54
2023-10-23T11:37:19.658Z,55.82
2023-10-23T11:39:47.178Z,56.08
2023-10-23T11:42:14.196Z,57.18
2023-10-23T11:44:40.921Z,58.46
2023-10-23T11:47:07.778Z,58.26
2023-10-23T11:49:34.729Z,57.85
2023-10-23T11:52:01.493Z,56.77
2023-10-23T11:54:28.355Z,57.79
2023-10-23T11:56:56.741Z,56.19
2023-10-23T11:59:24.804Z,56.34
2023-10-23T12:01:51.520Z,55.92
2023-10-23T12:04:18.384Z,55.89
2023-10-23T12:06:45.149Z,54.76
2023-10-23T12:09:11.815Z,55.27
2023-10-23T12:11:38.846Z,57.12
2023-10-23T12:14:05.643Z,55.56
2023-10-23T12:16:32.350Z,55.15
2023-10-23T12:18:59.113Z,56.43
2023-10-23T12:21:25.880Z,56.21
2023-10-23T12:23:52.590Z,56.53
2023-10-23T12:26:19.249Z,55.79
2023-10-23T12:28:45.990Z,55.53
2023-10-23T12:31:22.562Z,55.39
2023-10-23T12:33:51.276Z,56.96
2023-10-23T12:36:18.201Z,55.56
2023-10-23T12:38:44.886Z,56.37
2023-10-23T12:41:11.614Z,57.77
2023-10-23T12:43:38.396Z,56.61
2023-10-23T12:46:05.500Z,57.20
2023-10-23T12:48:32.320Z,57.28
2023-10-23T12:50:59.192Z,58.31
2023-10-23T12:53:26.001Z,57.32
2023-10-23T12:55:52.798Z,58.62
2023-10-23T12:58:19.623Z,58.27
2023-10-23T13:00:46.423Z,59.68
2023-10-23T13:03:13.367Z,59.20
2023-10-23T13:05:40.089Z,59.35
2023-10-23T13:08:07.011Z,59.48
2023-10-23T13:10:33.844Z,60.01
2023-10-23T13:13:00.776Z,59.04
2023-10-23T13:15:27.623Z,57.94
2023-10-23T13:17:54.419Z,59.93
2023-10-23T13:21:27.263Z,59.20
2023-10-23T13:23:07.935Z,59.89
2023-10-23T13:25:34.857Z,59.91
2023-10-23T13:28:01.647Z,58.72
2023-10-23T13:30:28.795Z,58.25
2023-10-23T13:32:55.675Z,59.76
2023-10-23T13:35:22.373Z,58.79
2023-10-23T13:37:49.061Z,59.46
2023-10-23T13:40:15.898Z,58.25
2023-10-23T13:42:42.752Z,59.38
2023-10-23T13:45:09.532Z,58.60
2023-10-23T13:47:36.393Z,57.84
2023-10-23T13:50:03.161Z,58.40
2023-10-23T13:52:29.892Z,56.52
2023-10-23T13:54:59.981Z,57.45
2023-10-23T13:57:26.744Z,58.11
2023-10-23T13:59:53.424Z,56.50
2023-10-23T14:02:20.250Z,58.22
2023-10-23T14:04:47.163Z,58.37
2023-10-23T14:07:13.918Z,57.66
2023-10-23T14:09:46.320Z,57.49
2023-10-23T14:12:14.705Z,57.20
2023-10-23T14:14:41.463Z,57.67
2023-10-23T14:17:08.607Z,57.26
2023-10-23T14:19:46.630Z,57.90
2023-10-23T14:22:14.379Z,58.26
2023-10-23T14:24:41.312Z,57.72
2023-10-23T14:27:08.315Z,57.02
2023-10-23T14:29:35.049Z,57.64
2023-10-23T14:32:01.894Z,57.67
2023-10-23T14:34:28.826Z,56.48
2023-10-23T14:36:55.652Z,57.43
2023-10-23T14:39:22.406Z,58.21
2023-10-23T14:41:49.105Z,57.48
2023-10-23T14:44:15.853Z,58.45
2023-10-23T14:46:42.607Z,58.46
2023-10-23T14:49:09.434Z,58.70
2023-10-23T14:51:36.097Z,58.98
2023-10-23T14:54:02.783Z,59.71
2023-10-23T14:56:29.450Z,60.23
2023-10-23T14:58:56.236Z,59.53
2023-10-23T15:01:22.963Z,58.74
2023-10-23T15:03:49.788Z,58.32
2023-10-23T15:06:16.503Z,59.70
2023-10-23T15:08:43.183Z,60.96
2023-10-23T15:11:09.882Z,59.49
2023-10-23T15:13:36.540Z,58.92
2023-10-23T15:16:03.242Z,59.88
2023-10-23T15:18:29.986Z,60.75
2023-10-23T15:20:56.688Z,61.91
2023-10-23T15:23:23.431Z,61.18
2023-10-23T15:25:50.129Z,62.75
2023-10-23T15:28:16.853Z,62.38
2023-10-23T15:30:43.556Z,63.18
2023-10-23T15:33:10.282Z,63.15
2023-10-23T15:35:37.003Z,63.37
2023-10-23T15:38:03.697Z,64.17
2023-10-23T15:40:32.377Z,63.96
2023-10-23T15:42:59.381Z,63.95
2023-10-23T15:45:26.058Z,63.09
2023-10-23T15:47:52.897Z,63.85
2023-10-23T15:50:19.632Z,63.72
2023-10-23T15:52:46.452Z,63.37
2023-10-23T15:55:13.248Z,62.43
2023-10-23T15:57:39.942Z,62.00
2023-10-23T16:00:06.647Z,63.90
2023-10-23T16:02:33.367Z,64.54
2023-10-23T16:05:00.376Z,65.24
2023-10-23T16:07:27.124Z,64.79
2023-10-23T16:09:53.900Z,63.91
2023-10-23T16:12:20.836Z,64.89
2023-10-23T16:14:56.568Z,64.46
2023-10-23T16:17:24.198Z,65.67
2023-10-23T16:19:51.031Z,66.43
2023-10-23T16:22:17.750Z,65.44
2023-10-23T16:24:44.634Z,65.37
2023-10-23T16:27:11.388Z,66.58
2023-10-23T16:29:38.225Z,67.16
2023-10-23T16:32:05.350Z,66.51
2023-10-23T16:34:32.329Z,68.08
2023-10-23T16:36:59.646Z,66.48
2023-10-23T16:39:26.390Z,68.00
2023-10-23T16:41:53.165Z,68.32
2023-10-23T16:44:19.906Z,66.94
2023-10-23T16:46:46.665Z,66.03
2023-10-23T16:49:13.574Z,67.06
2023-10-23T16:51:40.308Z,67.92
2023-10-23T16:54:07.178Z,67.77
2023-10-23T16:56:33.884Z,68.39
2023-10-23T16:59:00.685Z,69.22
2023-10-23T17:01:27.862Z,68.42
2023-10-23T17:03:54.714Z,68.63
2023-10-23T17:06:21.424Z,68.40
2023-10-23T17:08:48.206Z,67.27
2023-10-23T17:11:14.904Z,68.59
2023-10-23T17:13:41.674Z,69.95
2023-10-23T17:16:08.434Z,69.26
2023-10-23T17:18:35.201Z,67.76
2023-10-23T17:21:01.893Z,67.37
2023-10-23T17:23:28.610Z,68.83
2023-10-23T17:25:55.786Z,68.88
2023-10-23T17:28:22.698Z,68.01
2023-10-23T17:30:49.822Z,68.26
2023-10-23T17:33:16.471Z,69.07
2023-10-23T17:35:43.097Z,68.83
2023-10-23T17:38:09.693Z,68.57
2023-10-23T17:40:36.360Z,69.16
2023-10-23T17:43:02.964Z,69.08
2023-10-23T17:45:29.528Z,68.27
2023-10-23T17:47:56.225Z,69.26
2023-10-23T17:50:22.828Z,69.00
2023-10-23T17:52:49.491Z,68.19
2023-10-23T17:55:16.045Z,68.06
2023-10-23T17:57:42.586Z,68.89
2023-10-23T18:00:09.178Z,68.47
2023-10-23T18:02:35.921Z,68.72
2023-10-23T18:05:02.666Z,68.29
2023-10-23T18:07:29.243Z,69.02
2023-10-23T18:09:55.950Z,69.20
2023-10-23T18:12:37.387Z,68.85
2023-10-23T18:15:04.938Z,68.88
2023-10-23T18:17:31.660Z,68.29
2023-10-23T18:19:58.331Z,68.00
2023-10-23T18:22:24.980Z,68.33
2023-10-23T18:24:52.051Z,68.47
2023-10-23T18:27:19.227Z,67.11
2023-10-23T18:29:47.181Z,68.79
2023-10-23T18:32:13.869Z,68.73
2023-10-23T18:34:40.660Z,68.52
2023-10-23T18:37:07.423Z,68.28
2023-10-23T18:39:34.250Z,68.21
2023-10-23T18:42:01.008Z,68.58
2023-10-23T18:44:27.663Z,69.05
2023-10-23T18:46:54.421Z,69.63
2023-10-23T18:49:21.262Z,69.84
2023-10-23T18:51:47.980Z,70.64
2023-10-23T18:54:14.784Z,70.32
2023-10-23T18:56:41.761Z,68.39
2023-10-23T18:59:08.522Z,69.04
2023-10-23T19:01:35.311Z,69.02
2023-10-23T19:04:02.222Z,68.29
2023-10-23T19:06:29.070Z,68.27
2023-10-23T19:08:55.952Z,67.88
2023-10-23T19:11:22.706Z,68.74
2023-10-23T19:13:49.504Z,69.68
2023-10-23T19:16:16.411Z,69.81
2023-10-23T19:18:43.236Z,69.58
2023-10-23T19:21:10.011Z,69.42
2023-10-23T19:23:36.714Z,68.77
2023-10-23T19:26:03.438Z,69.94
2023-10-23T19:28:30.369Z,69.37
2023-10-23T19:30:57.351Z,68.94
2023-10-23T19:33:24.098Z,68.39
2023-10-23T19:35:50.799Z,68.94
2023-10-23T19:38:17.522Z,69.58
2023-10-23T19:40:44.376Z,68.95
2023-10-23T19:43:11.560Z,69.06
2023-10-23T19:45:38.492Z,69.59
2023-10-23T19:48:05.224Z,68.82
2023-10-23T19:50:32.182Z,68.10
2023-10-23T19:52:59.094Z,68.68
2023-10-23T19:55:43.230Z,69.31
2023-10-23T19:58:12.510Z,68.33
2023-10-23T20:00:39.434Z,68.32
2023-10-23T20:03:06.235Z,68.75
2023-10-23T20:05:33.146Z,66.76
2023-10-23T20:07:59.868Z,67.57
2023-10-23T20:10:26.628Z,68.02
2023-10-23T20:12:53.434Z,65.55
2023-10-23T20:15:20.323Z,65.96
2023-10-23T20:17:47.086Z,68.16
2023-10-23T20:20:13.960Z,67.01
2023-10-23T20:22:40.842Z,66.97
2023-10-23T20:25:07.599Z,67.57
2023-10-23T20:27:34.277Z,66.85
2023-10-23T20:30:01.000Z,68.07
2023-10-23T20:32:27.870Z,68.54
2023-10-23T20:34:54.604Z,68.50
2023-10-23T20:37:21.825Z,66.91
2023-10-23T20:39:49.358Z,67.87
2023-10-23T20:42:16.207Z,68.36
2023-10-23T20:44:42.974Z,68.81
2023-10-23T20:47:09.802Z,68.42
2023-10-23T20:49:36.691Z,67.99
2023-10-23T20:52:03.506Z,67.02
2023-10-23T20:54:30.242Z,66.94
2023-10-23T20:56:57.145Z,67.28
2023-10-23T20:59:24.009Z,66.02
2023-10-23T21:01:52.379Z,66.32
2023-10-23T21:04:19.153Z,67.07
2023-10-23T21:06:46.104Z,65.96
2023-10-23T21:09:12.794Z,66.19
2023-10-23T21:11:39.513Z,65.90
2023-10-23T21:14:06.526Z,65.58
2023-10-23T21:16:33.663Z,65.94
2023-10-23T21:19:00.877Z,66.82
2023-10-23T21:21:28.161Z,67.00
2023-10-23T21:23:54.882Z,66.48
2023-10-23T21:26:21.623Z,67.49
2023-10-23T21:28:48.431Z,67.43
2023-10-23T21:31:15.381Z,66.12
2023-10-23T21:33:42.185Z,66.33
2023-10-23T21:36:08.881Z,68.65
2023-10-23T21:38:35.741Z,66.79
2023-10-23T21:41:02.409Z,68.36
2023-10-23T21:43:29.148Z,68.23
2023-10-23T21:46:15.102Z,68.95
2023-10-23T21:48:42.776Z,68.19
2023-10-23T21:51:09.562Z,68.46
2023-10-23T21:53:36.407Z,71.55
2023-10-23T21:56:03.254Z,71.38
2023-10-23T21:59:03.967Z,71.02
2023-10-23T22:01:16.832Z,69.00
2023-10-23T22:03:47.135Z,69.07
2023-10-23T22:06:13.911Z,68.74
2023-10-23T22:08:40.715Z,67.33
2023-10-23T22:11:07.483Z,68.50
2023-10-23T22:13:34.227Z,66.96
2023-10-23T22:16:01.003Z,67.57
2023-10-23T22:18:27.739Z,67.39
2023-10-23T22:20:54.546Z,65.88
2023-10-23T22:23:21.319Z,66.54
2023-10-23T22:25:48.006Z,66.12
2023-10-23T22:28:14.726Z,67.64
2023-10-23T22:30:41.572Z,67.85
2023-10-23T22:33:14.932Z,68.27
2023-10-23T22:35:42.013Z,68.96
2023-10-23T22:38:10.085Z,69.28
2023-10-23T22:40:36.935Z,68.47
2023-10-23T22:43:03.734Z,67.60
2023-10-23T22:45:30.546Z,69.00
2023-10-23T22:47:57.323Z,70.05
2023-10-23T22:50:24.052Z,69.71
2023-10-23T22:52:50.824Z,68.41
2023-10-23T22:55:17.628Z,68.02
2023-10-23T22:57:44.364Z,67.92
2023-10-23T23:00:11.076Z,68.06
2023-10-23T23:02:37.830Z,67.82
2023-10-23T23:05:04.646Z,66.69
2023-10-23T23:07:31.365Z,67.10
2023-10-23T23:09:58.073Z,66.76
2023-10-23T23:12:24.817Z,66.93
2023-10-23T23:14:51.488Z,66.24
2023-10-23T23:17:18.209Z,65.28
2023-10-23T23:19:44.979Z,65.94
2023-10-23T23:22:11.757Z,66.32
2023-10-23T23:24:38.842Z,66.70
2023-10-23T23:27:05.774Z,65.57
2023-10-23T23:29:35.001Z,65.43
2023-10-23T23:32:01.729Z,66.14
2023-10-23T23:34:28.544Z,65.40
2023-10-23T23:36:55.291Z,66.35
2023-10-23T23:39:22.012Z,67.32
2023-10-23T23:41:48.746Z,65.37
2023-10-23T23:44:15.451Z,67.95
2023-10-23T23:46:42.131Z,67.63
2023-10-23T23:49:08.836Z,67.67
2023-10-23T23:51:35.541Z,68.59
2023-10-23T23:54:02.247Z,66.97
2023-10-23T23:56:28.987Z,67.19
2023-10-23T23:58:55.772Z,65.83
